Argyle, Wisconsin
Current Conditions -  °F | °C
As of 5:35 PM on Saturday 25 Oct 2014 (Local Time) from KEFT Reporting Station
Clear Clear  
Wind Chill: 63°   Ceiling: Unl
Heat Index: 63°   Visibility: 10mi
Dew Point: 30°   Wind: 14mph
Humidity: 30%   Direction: 280°W
Pressure: 29.96"   Gusts: 18mph
Location:  42.7°N, 89.87°W
Report Text: KEFT 252235Z AUTO 28012G16KT 10SM CLR 17/M01 A2996 RMK AO2
Loading
Personal Weather Stations






























Interactive Weather Map New forecast layout! Learn more

10-Day Weather Forecast

Advertisements
Track Severe Weather on mobile